Time;durP1;ratioP1;P1;durP2;ratioP2;P2;SDS_P1;SDS_P2;PMS_P1;PMS_P2;Temp;Humidity;BMP_temperature;BMP_pressure;BME280_temperature;BME280_humidity;BME280_pressure;Samples;Min_cycle;Max_cycle;Signal;HPM_P1;HPM_P2
2021/04/28 00:01:30;;;;;;;12.43;8.60;;;7.20;99.90;;;;;;5093804;28;20082;-71
2021/04/28 00:03:56;;;;;;;11.75;8.90;;;7.20;99.90;;;;;;5093548;28;20469;-71
2021/04/28 00:06:22;;;;;;;16.77;8.93;;;7.20;99.90;;;;;;5093167;28;20025;-71
2021/04/28 00:08:47;;;;;;;17.85;9.25;;;7.20;99.90;;;;;;5092356;28;20040;-71
2021/04/28 00:11:13;;;;;;;13.32;8.65;;;7.10;99.90;;;;;;5093155;28;20024;-71
2021/04/28 00:13:39;;;;;;;22.52;9.70;;;7.10;99.90;;;;;;5093418;28;20111;-71
2021/04/28 00:16:05;;;;;;;13.57;8.77;;;7.10;99.90;;;;;;5093708;28;20403;-71
2021/04/28 00:18:30;;;;;;;16.27;9.40;;;7.00;99.90;;;;;;5092267;28;20046;-71
2021/04/28 00:20:56;;;;;;;13.18;8.63;;;7.00;99.90;;;;;;5092374;28;20410;-71
2021/04/28 00:23:21;;;;;;;12.73;8.88;;;7.00;99.90;;;;;;5093617;28;20017;-71
2021/04/28 00:25:47;;;;;;;13.13;9.73;;;6.90;99.90;;;;;;5092826;28;20048;-71
2021/04/28 00:28:13;;;;;;;12.32;9.38;;;6.80;99.90;;;;;;5093316;28;20021;-71
2021/04/28 00:30:40;;;;;;;11.00;8.48;;;6.80;99.90;;;;;;5092419;28;20036;-71
2021/04/28 00:33:06;;;;;;;12.02;9.00;;;6.90;99.90;;;;;;5094173;28;20016;-71
2021/04/28 00:35:32;;;;;;;14.82;9.75;;;6.80;99.90;;;;;;5096935;28;20099;-71
2021/04/28 00:37:58;;;;;;;11.98;8.43;;;6.80;99.90;;;;;;5096888;28;20458;-71
2021/04/28 00:40:29;;;;;;;14.75;9.45;;;6.80;99.90;;;;;;5095384;28;20028;-71
2021/04/28 00:42:55;;;;;;;14.15;9.05;;;6.70;99.90;;;;;;5095615;28;20115;-71
2021/04/28 00:45:24;;;;;;;16.63;9.38;;;6.80;99.90;;;;;;5095510;28;20046;-71
2021/04/28 00:47:49;;;;;;;15.43;8.88;;;6.70;99.90;;;;;;5096678;28;20111;-71
2021/04/28 00:50:19;;;;;;;14.43;9.85;;;6.70;99.90;;;;;;5096625;28;20055;-71
2021/04/28 00:52:46;;;;;;;13.32;8.77;;;6.70;99.90;;;;;;5095178;28;20027;-71
2021/04/28 00:55:12;;;;;;;14.80;9.65;;;6.70;99.90;;;;;;5096274;28;20111;-71
2021/04/28 00:57:38;;;;;;;15.13;9.88;;;6.70;99.90;;;;;;5096237;28;20024;-71
2021/04/28 01:00:07;;;;;;;12.13;9.13;;;6.70;99.90;;;;;;5096165;28;20036;-71
2021/04/28 01:02:34;;;;;;;13.20;9.68;;;6.50;99.90;;;;;;5096588;28;20020;-71
2021/04/28 01:05:03;;;;;;;16.35;9.90;;;6.50;99.90;;;;;;5096533;28;20028;-71
2021/04/28 01:07:29;;;;;;;16.20;9.95;;;6.40;99.90;;;;;;5095262;28;20350;-71
2021/04/28 01:09:55;;;;;;;14.98;10.55;;;6.30;99.90;;;;;;5095550;28;20032;-71
2021/04/28 01:12:22;;;;;;;13.38;9.75;;;6.20;99.90;;;;;;5078716;28;20027;-71
2021/04/28 01:14:50;;;;;;;13.35;9.23;;;6.20;99.90;;;;;;5094680;28;20401;-71
2021/04/28 01:17:15;;;;;;;21.08;9.60;;;6.20;99.90;;;;;;5095426;28;20020;-71
2021/04/28 01:19:41;;;;;;;15.80;9.65;;;6.20;99.90;;;;;;5096064;28;20106;-71
2021/04/28 01:22:07;;;;;;;17.30;9.20;;;6.20;99.90;;;;;;5094460;28;20028;-71
2021/04/28 01:24:32;;;;;;;14.60;9.85;;;6.20;99.90;;;;;;5095915;28;20070;-71
2021/04/28 01:27:02;;;;;;;19.98;9.57;;;6.20;99.90;;;;;;5096156;28;20431;-71
2021/04/28 01:29:28;;;;;;;11.38;9.18;;;6.10;99.90;;;;;;5096149;28;20024;-71
2021/04/28 01:31:57;;;;;;;17.52;9.30;;;6.10;99.90;;;;;;5096137;28;20048;-71
2021/04/28 01:34:25;;;;;;;13.13;8.95;;;6.10;99.90;;;;;;5096049;28;20027;-71
2021/04/28 01:36:53;;;;;;;12.43;8.93;;;6.20;99.90;;;;;;5095963;28;20027;-71
2021/04/28 01:39:20;;;;;;;15.80;9.40;;;6.20;99.90;;;;;;5094290;28;20021;-71
2021/04/28 01:41:47;;;;;;;14.73;9.40;;;6.10;99.90;;;;;;5095645;28;20012;-71
2021/04/28 01:44:17;;;;;;;14.82;9.43;;;6.00;99.90;;;;;;5095830;28;20016;-71
2021/04/28 01:46:44;;;;;;;12.35;9.70;;;6.00;99.90;;;;;;5095748;28;20161;-71
2021/04/28 01:49:11;;;;;;;17.52;10.63;;;5.90;99.90;;;;;;5095479;28;20023;-71
2021/04/28 01:51:39;;;;;;;12.27;10.02;;;5.80;99.90;;;;;;5095493;28;20022;-71
2021/04/28 01:54:08;;;;;;;14.60;10.43;;;5.80;99.90;;;;;;5095440;28;20032;-71
2021/04/28 01:56:34;;;;;;;14.13;10.65;;;5.70;99.90;;;;;;5095064;28;20016;-71
2021/04/28 01:59:00;;;;;;;18.15;11.88;;;5.60;99.90;;;;;;5093854;28;20031;-71
2021/04/28 02:01:26;;;;;;;14.57;10.63;;;5.50;99.90;;;;;;5095287;28;20024;-71
2021/04/28 02:03:54;;;;;;;13.63;9.70;;;5.50;99.90;;;;;;5093945;28;20024;-71
2021/04/28 02:06:20;;;;;;;15.73;10.23;;;5.50;99.90;;;;;;5095392;28;20107;-71
2021/04/28 02:08:45;;;;;;;15.35;10.15;;;5.50;99.90;;;;;;5095153;28;20058;-71
2021/04/28 02:11:11;;;;;;;13.43;9.30;;;5.60;99.90;;;;;;5095326;28;20544;-71
2021/04/28 02:13:40;;;;;;;14.80;9.63;;;5.80;99.90;;;;;;5095047;28;20107;-71
2021/04/28 02:16:06;;;;;;;12.57;8.38;;;5.80;99.90;;;;;;5094734;28;20016;-71
2021/04/28 02:18:32;;;;;;;16.27;9.13;;;5.90;99.90;;;;;;5095216;28;20024;-71
2021/04/28 02:21:03;;;;;;;15.38;9.45;;;5.90;99.90;;;;;;5095206;28;20055;-71
2021/04/28 02:23:30;;;;;;;16.20;9.30;;;5.90;99.90;;;;;;5094587;28;20074;-71
2021/04/28 02:25:57;;;;;;;12.57;9.38;;;5.80;99.90;;;;;;5094371;28;20104;-71
2021/04/28 02:28:23;;;;;;;12.98;8.85;;;5.90;99.90;;;;;;5095021;28;20395;-71
2021/04/28 02:30:49;;;;;;;15.82;9.77;;;5.80;99.90;;;;;;5093855;28;20024;-71
2021/04/28 02:33:15;;;;;;;13.32;9.10;;;5.70;99.90;;;;;;5093189;28;20023;-71
2021/04/28 02:35:41;;;;;;;10.93;8.93;;;5.60;99.90;;;;;;5094603;28;20020;-71
2021/04/28 02:38:15;;;;;;;14.77;9.80;;;5.60;99.90;;;;;;5094592;28;20035;-71
2021/04/28 02:40:42;;;;;;;12.85;8.82;;;5.60;99.90;;;;;;5093377;28;20027;-71
2021/04/28 02:43:11;;;;;;;12.93;9.20;;;5.60;99.90;;;;;;5093034;28;20032;-70
2021/04/28 02:45:37;;;;;;;12.93;9.30;;;5.60;99.90;;;;;;5094403;28;20077;-71
2021/04/28 02:48:04;;;;;;;13.73;9.13;;;5.60;99.90;;;;;;5094685;28;20054;-71
2021/04/28 02:50:30;;;;;;;14.63;9.00;;;5.70;99.90;;;;;;5094084;28;20048;-71
2021/04/28 02:52:59;;;;;;;12.63;9.65;;;5.70;99.90;;;;;;5094638;28;20370;-71
2021/04/28 02:55:24;;;;;;;12.93;9.23;;;5.70;99.90;;;;;;5093874;28;20024;-71
2021/04/28 02:57:50;;;;;;;12.50;9.07;;;5.70;99.90;;;;;;5094244;28;20024;-71
2021/04/28 03:00:19;;;;;;;12.93;8.75;;;5.50;99.90;;;;;;5094223;28;20488;-71
2021/04/28 03:02:46;;;;;;;13.95;10.00;;;5.40;99.90;;;;;;5092624;28;20508;-71
2021/04/28 03:05:14;;;;;;;16.55;10.23;;;5.20;99.90;;;;;;5094322;28;20028;-71
2021/04/28 03:07:40;;;;;;;16.10;9.38;;;5.00;99.90;;;;;;5094125;28;20073;-71
2021/04/28 03:10:06;;;;;;;15.93;9.68;;;4.90;99.90;;;;;;5092611;28;20422;-71
2021/04/28 03:12:33;;;;;;;16.10;9.98;;;4.80;99.90;;;;;;5094022;28;20031;-71
2021/04/28 03:14:59;;;;;;;16.67;10.05;;;4.70;99.90;;;;;;5093716;28;20508;-71
2021/04/28 03:17:25;;;;;;;19.20;10.90;;;4.70;99.90;;;;;;5094278;28;20032;-71
2021/04/28 03:19:53;;;;;;;15.95;10.60;;;4.60;99.90;;;;;;5093920;28;20020;-71
2021/04/28 03:22:19;;;;;;;14.30;10.23;;;4.50;99.90;;;;;;5092413;28;20032;-71
2021/04/28 03:24:47;;;;;;;13.60;9.50;;;4.50;99.90;;;;;;5093877;28;20038;-71
2021/04/28 03:27:14;;;;;;;17.00;9.48;;;4.70;99.90;;;;;;5075406;28;20073;-71
2021/04/28 03:29:40;;;;;;;12.77;8.95;;;4.90;99.90;;;;;;5094100;28;20026;-71
2021/04/28 03:32:07;;;;;;;13.32;8.73;;;5.20;99.90;;;;;;5093529;28;20020;-71
2021/04/28 03:34:33;;;;;;;13.23;9.27;;;5.30;99.90;;;;;;5093045;28;20373;-71
2021/04/28 03:36:58;;;;;;;14.30;10.15;;;5.30;99.90;;;;;;5093798;28;20031;-71
2021/04/28 03:39:24;;;;;;;17.92;11.02;;;5.30;99.90;;;;;;5094098;28;20024;-71
2021/04/28 03:41:50;;;;;;;22.02;16.55;;;4.90;99.90;;;;;;5093736;28;20019;-71
2021/04/28 03:44:16;;;;;;;17.83;12.30;;;4.60;99.90;;;;;;5093681;28;20020;-71
2021/04/28 03:46:42;;;;;;;19.92;12.20;;;4.30;99.90;;;;;;5092233;28;20060;-71
2021/04/28 03:49:07;;;;;;;23.08;12.98;;;4.10;99.90;;;;;;5093982;28;20453;-71
2021/04/28 03:51:33;;;;;;;19.10;12.32;;;4.00;99.90;;;;;;5093942;28;20500;-71
2021/04/28 03:53:59;;;;;;;19.77;12.20;;;3.80;99.90;;;;;;5093384;28;20027;-71
2021/04/28 03:56:26;;;;;;;21.55;12.65;;;3.70;99.90;;;;;;5092477;28;20081;-71
2021/04/28 03:58:52;;;;;;;24.20;13.75;;;3.60;99.90;;;;;;5092460;28;20465;-71
2021/04/28 04:01:18;;;;;;;24.38;13.27;;;3.60;99.90;;;;;;5093911;28;20150;-71
2021/04/28 04:03:44;;;;;;;25.95;12.43;;;3.50;99.90;;;;;;5092437;28;20048;-71
2021/04/28 04:06:10;;;;;;;22.23;13.15;;;3.40;99.90;;;;;;5092297;28;20496;-71
2021/04/28 04:08:35;;;;;;;22.42;13.50;;;3.30;99.90;;;;;;5096871;28;20398;-71
2021/04/28 04:11:01;;;;;;;21.58;12.73;;;3.40;99.90;;;;;;5097400;28;20369;-71
2021/04/28 04:13:26;;;;;;;19.70;12.35;;;3.40;99.90;;;;;;5097643;28;20027;-71
2021/04/28 04:15:52;;;;;;;24.95;13.65;;;3.60;99.90;;;;;;5097595;28;20028;-71
2021/04/28 04:18:18;;;;;;;21.58;13.50;;;3.60;99.90;;;;;;5096129;28;20469;-71
2021/04/28 04:20:43;;;;;;;27.27;14.38;;;3.60;99.90;;;;;;5096349;28;20119;-71
2021/04/28 04:23:09;;;;;;;27.92;14.27;;;3.60;99.90;;;;;;5096865;28;20089;-71
2021/04/28 04:25:34;;;;;;;22.67;13.93;;;3.50;99.90;;;;;;5096761;28;20044;-71
2021/04/28 04:28:00;;;;;;;23.13;13.15;;;3.40;99.90;;;;;;5095635;28;20103;-71
2021/04/28 04:30:25;;;;;;;20.27;12.30;;;3.40;99.90;;;;;;5097017;28;20058;-71
2021/04/28 04:32:52;;;;;;;19.67;11.40;;;3.70;99.90;;;;;;5096637;28;20020;-71
2021/04/28 04:35:18;;;;;;;18.45;11.85;;;4.10;99.90;;;;;;5096605;28;20028;-71
2021/04/28 04:37:43;;;;;;;26.55;12.48;;;4.20;99.90;;;;;;5096488;28;20047;-71
2021/04/28 04:40:10;;;;;;;18.38;12.13;;;4.20;99.90;;;;;;5096805;28;20473;-71
2021/04/28 04:42:35;;;;;;;18.88;12.73;;;4.10;99.90;;;;;;5097061;28;20024;-71
2021/04/28 04:45:01;;;;;;;24.95;13.13;;;4.00;99.90;;;;;;5096402;28;20028;-71
2021/04/28 04:47:26;;;;;;;22.80;12.90;;;4.10;99.90;;;;;;5096967;28;20031;-71
2021/04/28 04:49:52;;;;;;;23.30;13.88;;;4.20;99.90;;;;;;5096687;28;20077;-71
2021/04/28 04:52:18;;;;;;;22.40;13.50;;;4.30;99.90;;;;;;5096594;28;20028;-71
2021/04/28 04:54:43;;;;;;;23.15;12.18;;;4.40;99.90;;;;;;5096860;28;20024;-71
2021/04/28 04:57:09;;;;;;;20.88;12.75;;;4.70;99.90;;;;;;5096786;28;20028;-71
2021/04/28 04:59:34;;;;;;;16.70;11.57;;;5.10;99.90;;;;;;5096761;28;20362;-71
2021/04/28 05:02:00;;;;;;;20.13;11.38;;;5.60;99.90;;;;;;5095509;28;20373;-71
2021/04/28 05:04:26;;;;;;;17.02;11.10;;;5.90;99.90;;;;;;5094935;28;20473;-71
2021/04/28 05:06:53;;;;;;;21.48;11.27;;;6.20;99.90;;;;;;5095263;28;20028;-71
2021/04/28 05:09:20;;;;;;;21.35;11.73;;;6.30;99.90;;;;;;5094843;28;20098;-71
2021/04/28 05:11:45;;;;;;;15.32;11.27;;;6.50;99.90;;;;;;5096238;28;20020;-71
2021/04/28 05:14:11;;;;;;;15.85;10.05;;;6.70;99.90;;;;;;5095038;28;20524;-71
2021/04/28 05:16:37;;;;;;;17.38;10.20;;;6.70;99.90;;;;;;5096397;28;20024;-71
2021/04/28 05:19:02;;;;;;;16.83;10.10;;;6.20;99.90;;;;;;5095462;28;20028;-71
2021/04/28 05:21:28;;;;;;;18.20;11.30;;;6.40;99.90;;;;;;5095327;28;20031;-70
2021/04/28 05:23:53;;;;;;;16.08;10.43;;;6.40;99.90;;;;;;5095994;28;20358;-71
2021/04/28 05:26:19;;;;;;;20.65;10.77;;;6.70;99.90;;;;;;5095453;28;20062;-71
2021/04/28 05:28:45;;;;;;;19.17;10.98;;;6.70;99.90;;;;;;5095895;28;20073;-71
2021/04/28 05:31:10;;;;;;;20.17;10.98;;;6.80;99.90;;;;;;5094959;28;20423;-71
2021/04/28 05:33:36;;;;;;;18.42;10.98;;;7.00;99.90;;;;;;5096106;28;20023;-71
2021/04/28 05:36:03;;;;;;;19.40;10.80;;;7.40;99.90;;;;;;5095772;28;20103;-71
2021/04/28 05:38:28;;;;;;;14.75;10.27;;;8.50;99.90;;;;;;5096020;28;20374;-71
2021/04/28 05:40:54;;;;;;;18.13;9.95;;;9.90;99.90;;;;;;5095389;28;20036;-71
2021/04/28 05:43:20;;;;;;;18.13;9.82;;;11.50;99.90;;;;;;5095897;28;20024;-71
2021/04/28 05:45:46;;;;;;;19.83;10.60;;;12.90;95.90;;;;;;5095481;28;20024;-71
2021/04/28 05:48:13;;;;;;;14.73;9.15;;;14.40;83.10;;;;;;5095797;28;20024;-71
2021/04/28 05:50:40;;;;;;;13.38;8.48;;;14.40;70.40;;;;;;5095732;28;20016;-71
2021/04/28 05:53:06;;;;;;;19.15;8.98;;;14.70;63.30;;;;;;5095304;28;20512;-72
2021/04/28 05:55:32;;;;;;;19.17;8.60;;;14.50;62.60;;;;;;5095005;28;20362;-70
2021/04/28 05:57:57;;;;;;;12.82;8.20;;;15.60;58.70;;;;;;5095256;28;20031;-70
2021/04/28 06:00:24;;;;;;;11.52;7.88;;;16.00;56.30;;;;;;5095026;28;20020;-70
2021/04/28 06:02:49;;;;;;;12.90;8.13;;;16.30;50.70;;;;;;5094911;28;20511;-70
2021/04/28 06:05:15;;;;;;;10.35;8.18;;;16.10;50.30;;;;;;5095004;28;20103;-70
2021/04/28 06:07:41;;;;;;;12.68;8.32;;;16.50;50.20;;;;;;5095098;28;20023;-70
2021/04/28 06:10:07;;;;;;;13.50;8.00;;;16.60;49.20;;;;;;5094224;28;20380;-71
2021/04/28 06:12:34;;;;;;;14.77;8.10;;;16.80;49.40;;;;;;5095697;28;20030;-72
2021/04/28 06:14:59;;;;;;;12.80;8.05;;;17.00;48.20;;;;;;5093657;28;20028;-71
2021/04/28 06:17:25;;;;;;;11.27;8.02;;;17.20;47.50;;;;;;5093076;28;20055;-70
2021/04/28 06:19:50;;;;;;;10.60;7.43;;;16.70;47.30;;;;;;5092530;28;20473;-71
2021/04/28 06:22:16;;;;;;;10.25;7.72;;;17.50;45.90;;;;;;5093002;28;20029;-71
2021/04/28 06:24:42;;;;;;;11.00;8.25;;;16.90;47.50;;;;;;5093886;28;20469;-71
2021/04/28 06:27:07;;;;;;;11.07;7.40;;;16.90;46.90;;;;;;5093866;28;20496;-72
2021/04/28 06:29:33;;;;;;;10.57;7.57;;;17.40;46.20;;;;;;5093219;28;20028;-72
2021/04/28 06:31:59;;;;;;;9.63;7.55;;;16.70;47.20;;;;;;5112121;28;20024;-73
2021/04/28 06:34:25;;;;;;;11.93;7.78;;;17.00;47.10;;;;;;5097282;28;20427;-72
2021/04/28 06:36:50;;;;;;;12.27;7.35;;;17.50;46.70;;;;;;5088593;28;20027;-72
2021/04/28 06:39:16;;;;;;;10.10;7.95;;;17.90;45.10;;;;;;5089315;28;20043;-72
2021/04/28 06:41:43;;;;;;;12.38;7.63;;;17.90;43.80;;;;;;5091103;28;20024;-72
2021/04/28 06:44:08;;;;;;;10.57;7.80;;;17.90;44.50;;;;;;5089271;28;20020;-72
2021/04/28 06:46:34;;;;;;;12.05;8.35;;;17.80;44.40;;;;;;5087081;28;20028;-73
2021/04/28 06:49:00;;;;;;;9.27;7.80;;;17.80;44.40;;;;;;5092025;28;20084;-73
2021/04/28 06:51:26;;;;;;;12.35;8.10;;;18.30;43.90;;;;;;5092233;28;20069;-72
2021/04/28 06:53:51;;;;;;;21.23;8.38;;;19.30;43.50;;;;;;5093225;28;20024;-73
2021/04/28 06:56:17;;;;;;;10.30;7.88;;;18.80;44.00;;;;;;5092409;28;20036;-72
2021/04/28 06:58:45;;;;;;;13.27;7.78;;;18.70;44.70;;;;;;5083362;28;20028;-71
2021/04/28 07:01:10;;;;;;;10.90;7.80;;;18.90;42.80;;;;;;5092514;28;20019;-72
2021/04/28 07:03:36;;;;;;;11.95;8.10;;;18.80;43.60;;;;;;5082901;28;20400;-73
2021/04/28 07:06:02;;;;;;;11.07;8.32;;;18.60;43.30;;;;;;5088335;28;20034;-71
2021/04/28 07:08:27;;;;;;;10.18;7.80;;;19.40;43.70;;;;;;5091706;28;20085;-72
2021/04/28 07:10:53;;;;;;;8.82;7.30;;;20.10;42.30;;;;;;5092535;28;20461;-72
2021/04/28 07:13:19;;;;;;;7.80;6.97;;;20.40;41.30;;;;;;5092665;28;20389;-71
2021/04/28 07:15:46;;;;;;;11.50;8.32;;;20.40;40.80;;;;;;5087796;28;20032;-71
2021/04/28 07:18:12;;;;;;;12.73;8.00;;;20.30;41.50;;;;;;5077551;28;20081;-71
2021/04/28 07:20:37;;;;;;;10.02;7.53;;;20.00;41.30;;;;;;5086893;28;20384;-69
2021/04/28 07:23:03;;;;;;;10.20;7.85;;;19.40;42.00;;;;;;5091182;28;20020;-71
2021/04/28 07:25:28;;;;;;;13.32;7.40;;;19.80;43.10;;;;;;5091380;28;20051;-71
2021/04/28 07:27:54;;;;;;;11.77;8.10;;;20.30;43.40;;;;;;5092611;28;20049;-72
2021/04/28 07:30:20;;;;;;;14.15;8.30;;;20.00;41.80;;;;;;5090023;28;20020;-71
2021/04/28 07:32:46;;;;;;;14.43;8.48;;;20.30;41.20;;;;;;5077293;28;20019;-71
2021/04/28 07:35:13;;;;;;;9.32;7.90;;;21.30;39.60;;;;;;5090272;28;20032;-69
2021/04/28 07:37:39;;;;;;;13.48;8.02;;;22.50;36.60;;;;;;5092919;28;20027;-71
2021/04/28 07:40:06;;;;;;;13.07;7.95;;;21.40;36.90;;;;;;5092447;28;20038;-72
2021/04/28 07:42:31;;;;;;;12.60;7.97;;;21.20;37.90;;;;;;5089167;28;20070;-71
2021/04/28 07:44:59;;;;;;;8.82;7.93;;;20.20;39.10;;;;;;5096295;28;20609;-71
2021/04/28 07:47:24;;;;;;;11.68;7.80;;;20.90;38.20;;;;;;5088039;28;21200;-71
2021/04/28 07:49:50;;;;;;;15.63;8.23;;;21.50;37.40;;;;;;5096995;28;20024;-71
2021/04/28 07:52:15;;;;;;;10.07;7.85;;;21.40;37.20;;;;;;5096219;28;20495;-73
2021/04/28 07:54:41;;;;;;;10.13;7.80;;;21.40;36.70;;;;;;5095259;28;20024;-73
2021/04/28 07:57:07;;;;;;;9.77;8.07;;;21.70;35.20;;;;;;5094872;28;20016;-71
2021/04/28 07:59:32;;;;;;;16.27;8.10;;;21.10;36.00;;;;;;5097264;28;20095;-72
2021/04/28 08:01:58;;;;;;;14.35;8.85;;;20.70;37.00;;;;;;5096314;28;20024;-72
2021/04/28 08:04:24;;;;;;;11.25;8.38;;;21.50;35.50;;;;;;5074725;28;20496;-71
2021/04/28 08:06:49;;;;;;;11.05;8.55;;;21.30;37.40;;;;;;5076962;28;20037;-71
2021/04/28 08:09:15;;;;;;;8.98;7.68;;;20.80;37.90;;;;;;5090273;28;20032;-71
2021/04/28 08:11:40;;;;;;;14.65;7.85;;;21.30;36.90;;;;;;5096333;28;20127;-69
2021/04/28 08:14:06;;;;;;;12.57;8.57;;;21.40;36.60;;;;;;5101899;28;20030;-70
2021/04/28 08:16:33;;;;;;;12.75;8.27;;;21.90;35.00;;;;;;5088084;28;20486;-70
2021/04/28 08:18:59;;;;;;;13.27;8.30;;;22.50;34.50;;;;;;5095910;28;20110;-70
2021/04/28 08:21:24;;;;;;;11.43;8.57;;;22.10;35.10;;;;;;5095681;28;20067;-70
2021/04/28 08:23:50;;;;;;;10.07;8.35;;;22.50;34.90;;;;;;5076261;28;20033;-70
2021/04/28 08:26:15;;;;;;;10.23;8.52;;;22.40;34.70;;;;;;5089415;28;20036;-70
2021/04/28 08:28:43;;;;;;;14.10;9.38;;;22.10;36.60;;;;;;5094781;28;20024;-70
2021/04/28 08:31:11;;;;;;;13.90;8.52;;;22.10;36.20;;;;;;5082650;28;20528;-70
2021/04/28 08:33:38;;;;;;;13.30;8.65;;;21.50;38.10;;;;;;5093577;28;20023;-71
2021/04/28 08:36:03;;;;;;;16.15;9.52;;;21.80;37.00;;;;;;5083436;28;20032;-70
2021/04/28 08:38:29;;;;;;;14.82;9.02;;;21.70;37.20;;;;;;5087481;28;20089;-71
2021/04/28 08:40:55;;;;;;;12.93;8.98;;;22.50;36.70;;;;;;5093958;28;20023;-70
2021/04/28 08:43:22;;;;;;;10.40;8.57;;;22.50;35.60;;;;;;5095818;28;20427;-69
2021/04/28 08:45:49;;;;;;;12.40;8.13;;;22.40;34.60;;;;;;5090111;28;20371;-70
2021/04/28 08:48:14;;;;;;;13.25;8.88;;;22.40;35.20;;;;;;5089699;28;20029;-71
2021/04/28 08:50:40;;;;;;;11.10;8.68;;;23.10;34.80;;;;;;5090483;28;20035;-70
2021/04/28 08:53:06;;;;;;;13.10;9.57;;;23.20;35.70;;;;;;5083953;28;20020;-70
2021/04/28 08:55:32;;;;;;;11.05;8.25;;;23.90;34.70;;;;;;5106243;28;20036;-71
2021/04/28 08:57:58;;;;;;;11.55;8.20;;;24.10;35.00;;;;;;5091020;28;20077;-71
2021/04/28 09:00:24;;;;;;;10.23;7.97;;;24.40;33.60;;;;;;5087424;28;20035;-71
2021/04/28 09:02:50;;;;;;;12.35;8.52;;;24.90;33.70;;;;;;5094631;28;20032;-71
2021/04/28 09:05:16;;;;;;;9.60;8.60;;;24.30;34.50;;;;;;5090986;28;20384;-72
2021/04/28 09:07:43;;;;;;;10.50;8.23;;;23.80;35.10;;;;;;5071881;28;20024;-71
2021/04/28 09:10:13;;;;;;;31.30;11.05;;;23.40;37.10;;;;;;5090642;28;20425;-71
2021/04/28 09:12:39;;;;;;;14.10;9.25;;;24.10;36.70;;;;;;5094432;28;20020;-71
2021/04/28 09:15:07;;;;;;;13.88;9.23;;;23.50;35.90;;;;;;5085235;28;20023;-71
2021/04/28 09:17:50;;;;;;;11.32;8.52;;;24.40;34.60;;;;;;5087478;28;20020;-70
2021/04/28 09:20:24;;;;;;;9.50;8.45;;;25.40;35.30;;;;;;5086336;28;20020;-71
2021/04/28 09:23:12;;;;;;;12.15;8.77;;;24.20;34.50;;;;;;5094512;28;20524;-70
2021/04/28 09:25:47;;;;;;;12.57;8.93;;;24.00;36.30;;;;;;5081427;28;20045;-71
2021/04/28 09:36:27;;;;;;;10.65;9.50;;;24.40;35.60;;;;;;5106305;27;20410;-71
2021/04/28 09:39:17;;;;;;;12.02;9.45;;;24.80;32.80;;;;;;5086415;28;20229;-71
2021/04/28 09:41:46;;;;;;;13.00;9.13;;;24.40;33.10;;;;;;5086442;28;20021;-72
2021/04/28 09:44:22;;;;;;;10.52;9.32;;;24.90;35.70;;;;;;5090203;28;20423;-71
2021/04/28 09:47:00;;;;;;;13.50;10.27;;;25.40;32.60;;;;;;5080475;28;20058;-70
2021/04/28 09:49:27;;;;;;;13.18;9.63;;;24.40;33.40;;;;;;5102809;28;20038;-71
2021/04/28 09:51:55;;;;;;;10.88;9.45;;;24.70;34.20;;;;;;5081420;28;20028;-71
2021/04/28 09:54:26;;;;;;;10.23;9.13;;;25.30;32.60;;;;;;5088612;28;20048;-71
2021/04/28 09:56:53;;;;;;;11.88;9.88;;;24.60;31.20;;;;;;5106437;28;20065;-71
2021/04/28 09:59:18;;;;;;;11.77;8.77;;;24.60;32.50;;;;;;5090990;28;20402;-71
2021/04/28 10:01:44;;;;;;;15.32;9.65;;;25.20;31.20;;;;;;5081833;28;20017;-70
2021/04/28 10:04:10;;;;;;;11.63;9.73;;;25.00;31.20;;;;;;5072259;28;20040;-72
2021/04/28 10:06:47;;;;;;;12.50;9.02;;;24.20;32.20;;;;;;5085454;28;20021;-73
2021/04/28 10:09:36;;;;;;;10.52;9.23;;;25.10;31.00;;;;;;5073252;28;20052;-72
2021/04/28 10:12:05;;;;;;;12.32;9.32;;;25.30;31.50;;;;;;5073577;28;20020;-72
2021/04/28 10:14:34;;;;;;;10.77;9.05;;;25.40;30.40;;;;;;5092392;28;20040;-69
2021/04/28 10:17:03;;;;;;;10.63;8.98;;;25.00;30.80;;;;;;5089831;28;20048;-70
2021/04/28 10:19:30;;;;;;;12.00;9.70;;;25.30;30.30;;;;;;5085270;28;20107;-71
2021/04/28 10:22:05;;;;;;;9.70;8.73;;;25.40;29.70;;;;;;5081341;28;20103;-71
2021/04/28 10:24:32;;;;;;;10.95;9.05;;;25.90;29.00;;;;;;5094087;28;20017;-70
2021/04/28 10:26:57;;;;;;;11.02;9.32;;;25.60;30.10;;;;;;5077438;28;20461;-70
2021/04/28 10:29:24;;;;;;;10.98;9.50;;;25.60;30.60;;;;;;5083205;28;20033;-71
2021/04/28 10:31:51;;;;;;;12.75;9.38;;;25.00;30.40;;;;;;5075187;28;20027;-71
2021/04/28 10:34:27;;;;;;;13.13;9.48;;;24.90;31.10;;;;;;5088533;28;20264;-72
2021/04/28 10:36:55;;;;;;;11.68;8.80;;;24.40;29.90;;;;;;5083188;28;20048;-72
2021/04/28 10:39:23;;;;;;;10.55;8.80;;;24.60;29.40;;;;;;5073389;28;20451;-72
2021/04/28 10:41:52;;;;;;;10.73;9.43;;;24.50;28.70;;;;;;5097583;28;20157;-71
2021/04/28 10:44:40;;;;;;;16.08;9.75;;;23.70;30.90;;;;;;5093418;28;20020;-72
2021/04/28 10:47:27;;;;;;;11.05;9.43;;;22.70;32.20;;;;;;5086220;28;20109;-73
2021/04/28 10:50:19;;;;;;;11.48;9.40;;;22.60;32.80;;;;;;5065626;28;20017;-71
2021/04/28 10:52:53;;;;;;;14.27;9.25;;;22.20;32.70;;;;;;5055442;28;20331;-70
2021/04/28 10:55:38;;;;;;;;;;;21.70;33.10;;;;;;5065931;28;20107;-71
2021/04/28 10:58:24;;;;;;;10.82;8.70;;;21.10;34.70;;;;;;5073541;28;19909;-70
2021/04/28 11:01:01;;;;;;;10.18;8.52;;;21.40;35.40;;;;;;5072128;28;20438;-72
2021/04/28 11:03:49;;;;;;;9.15;6.90;;;21.50;33.60;;;;;;5060098;28;20031;-70
2021/04/28 11:16:51;;;;;;;8.30;7.00;;;22.40;32.70;;;;;;5103264;27;20367;-71
2021/04/28 11:19:34;;;;;;;9.95;5.88;;;21.90;30.20;;;;;;5088945;28;20058;-72
2021/04/28 11:25:16;;;;;;;12.20;7.35;;;22.00;28.30;;;;;;5109826;27;20839;-71
2021/04/28 11:28:03;;;;;;;9.68;7.43;;;21.80;30.50;;;;;;5101655;28;20027;-70
2021/04/28 11:30:35;;;;;;;11.10;8.80;;;21.70;32.80;;;;;;5079202;28;20017;-71
2021/04/28 11:33:27;;;;;;;10.23;7.78;;;21.20;32.50;;;;;;5088643;28;20028;-70
2021/04/28 11:38:35;;;;;;;9.13;7.93;;;20.70;32.90;;;;;;5068987;28;20377;-69
2021/04/28 11:41:12;;;;;;;11.38;8.30;;;21.00;32.90;;;;;;5068887;28;20032;-71
2021/04/28 11:43:43;;;;;;;11.82;8.88;;;21.30;31.90;;;;;;5068691;28;20079;-69
2021/04/28 11:46:12;;;;;;;13.05;9.68;;;21.10;31.90;;;;;;5069435;28;20108;-71
2021/04/28 11:48:41;;;;;;;10.43;8.85;;;21.10;31.00;;;;;;5066299;28;20083;-71
2021/04/28 11:51:09;;;;;;;13.07;8.65;;;21.50;30.90;;;;;;5068441;28;20462;-70
2021/04/28 11:53:46;;;;;;;11.98;8.68;;;21.20;30.70;;;;;;5068357;28;20469;-71
2021/04/28 11:56:41;;;;;;;15.10;9.63;;;21.00;31.10;;;;;;5069648;28;20473;-70
2021/04/28 11:59:18;;;;;;;12.95;8.63;;;21.10;31.70;;;;;;5050084;28;20041;-71
2021/04/28 12:01:44;;;;;;;9.85;8.77;;;21.70;30.30;;;;;;5065815;28;20385;-71
2021/04/28 12:04:11;;;;;;;11.63;8.68;;;22.30;30.40;;;;;;5069697;28;20025;-70
2021/04/28 12:09:39;;;;;;;11.68;8.98;;;22.60;31.50;;;;;;5131282;27;666737;-70
2021/04/28 12:17:47;;;;;;;13.32;9.68;;;21.00;30.40;;;;;;5110682;27;20762;-71
2021/04/28 12:20:16;;;;;;;10.95;9.02;;;21.10;31.30;;;;;;5108615;28;20107;-71
2021/04/28 12:22:42;;;;;;;12.55;9.13;;;21.20;32.10;;;;;;5090136;28;20069;-70
2021/04/28 12:25:09;;;;;;;10.70;8.85;;;21.70;31.80;;;;;;5089782;28;20081;-70
2021/04/28 12:27:37;;;;;;;13.48;8.60;;;21.40;31.80;;;;;;5109758;28;20111;-70
2021/04/28 12:30:06;;;;;;;10.98;8.50;;;21.50;33.50;;;;;;5108066;28;20035;-71
2021/04/28 12:32:35;;;;;;;11.02;8.90;;;21.90;33.10;;;;;;5108594;28;20050;-71
2021/04/28 12:35:16;;;;;;;11.45;8.65;;;21.50;31.80;;;;;;5109460;28;20024;-70
2021/04/28 12:37:57;;;;;;;12.45;9.48;;;21.30;32.10;;;;;;5109008;28;20114;-71
2021/04/28 12:40:52;;;;;;;14.10;9.65;;;20.90;32.40;;;;;;5100933;28;20469;-71
2021/04/28 12:43:22;;;;;;;14.35;8.68;;;21.00;33.30;;;;;;5108960;28;20110;-71
2021/04/28 12:45:48;;;;;;;14.23;10.27;;;21.10;31.90;;;;;;5109373;28;20045;-70
2021/04/28 12:48:17;;;;;;;14.93;10.30;;;21.20;33.60;;;;;;5108945;28;20028;-71
2021/04/28 12:50:45;;;;;;;11.75;9.50;;;21.10;33.40;;;;;;5107470;28;20054;-71
2021/04/28 12:53:14;;;;;;;15.10;9.30;;;21.20;33.80;;;;;;5109015;28;20023;-71
2021/04/28 12:55:46;;;;;;;15.35;9.98;;;21.50;33.10;;;;;;5107169;28;20060;-70
2021/04/28 12:58:13;;;;;;;13.80;9.88;;;21.30;32.40;;;;;;5109410;28;20396;-70
2021/04/28 13:00:55;;;;;;;14.63;9.30;;;21.50;32.60;;;;;;5107922;28;20473;-70
2021/04/28 13:06:07;;;;;;;14.38;10.07;;;21.20;33.20;;;;;;5089054;28;20398;-69
2021/04/28 13:08:40;;;;;;;13.75;11.00;;;20.80;33.30;;;;;;5073912;28;20021;-70
2021/04/28 13:11:26;;;;;;;12.48;10.23;;;20.70;34.50;;;;;;5076873;28;20029;-70
2021/04/28 13:13:59;;;;;;;15.73;10.73;;;21.10;34.50;;;;;;5058588;28;20057;-71
2021/04/28 13:16:41;;;;;;;15.77;10.67;;;20.80;35.30;;;;;;5068814;28;20059;-70
2021/04/28 13:19:25;;;;;;;18.65;11.40;;;20.80;34.20;;;;;;5071056;28;20029;-70
2021/04/28 13:22:03;;;;;;;15.73;11.23;;;20.70;35.00;;;;;;5074927;28;20112;-70